| time (UTC) | temp F | wind direction | speed MPH | gust MPH | rain 1hr in | rain 24hr in | rain mn in | humidity % | barometer mb |
| 20260504213804 | 67 | 58 | 2.0 | 7.0 | 0.00 | 0.00 | 0.00 | 58 | 1010.2 |
| 20260504213300 | 68 | 338 | 5.0 | 7.0 | 0.00 | 0.00 | 0.00 | 56 | 1010.3 |
| 20260504212758 | 68 | 103 | 2.0 | 3.0 | 0.00 | 0.00 | 0.00 | 56 | 1010.1 |
| 20260504212254 | 68 | 82 | 3.0 | 5.0 | 0.00 | 0.00 | 0.00 | 57 | 1010.1 |
| 20260504211752 | 68 | 109 | 2.0 | 6.0 | 0.00 | 0.00 | 0.00 | 56 | 1009.9 |
| 20260504211247 | 68 | 31 | 2.0 | 6.0 | 0.00 | 0.00 | 0.00 | 54 | 1009.9 |
| 20260504210745 | 68 | 103 | 0.0 | 3.0 | 0.00 | 0.00 | 0.00 | 55 | 1010.1 |
| 20260504210242 | 69 | 95 | 3.0 | 9.0 | 0.00 | 0.00 | 0.00 | 52 | 1010.0 |
| 20260504205739 | 68 | 103 | 1.0 | 6.0 | 0.00 | 0.00 | 0.00 | 53 | 1010.0 |
| 20260504205237 | 69 | 20 | 4.0 | 7.0 | 0.00 | 0.00 | 0.00 | 52 | 1009.8 |
| 20260504204735 | 69 | 98 | 4.0 | 9.0 | 0.00 | 0.00 | 0.00 | 51 | 1009.8 |
| 20260504204233 | 69 | 142 | 5.0 | 8.0 | 0.00 | 0.00 | 0.00 | 52 | 1009.9 |
| 20260504203732 | 69 | 97 | 2.0 | 10.0 | 0.00 | 0.00 | 0.00 | 52 | 1009.9 |
| 20260504203229 | 69 | 114 | 4.0 | 8.0 | 0.00 | 0.00 | 0.00 | 55 | 1009.7 |
| 20260504202729 | 70 | 105 | 1.0 | 7.0 | 0.00 | 0.00 | 0.00 | 52 | 1009.8 |
| 20260504202227 | 70 | 121 | 1.0 | 5.0 | 0.00 | 0.00 | 0.00 | 53 | 1010.0 |
| 20260504201724 | 70 | 72 | 1.0 | 9.0 | 0.00 | 0.00 | 0.00 | 53 | 1009.9 |
| 20260504201221 | 71 | 97 | 1.0 | 3.0 | 0.00 | 0.00 | 0.00 | 52 | 1009.7 |
| 20260504200718 | 71 | 113 | 2.0 | 2.0 | 0.00 | 0.00 | 0.00 | 53 | 1010.1 |
| 20260504200214 | 70 | 115 | 1.0 | 5.0 | 0.00 | 0.00 | 0.00 | 53 | 1010.2 |
| 20260504195711 | 70 | 104 | 2.0 | 5.0 | 0.00 | 0.00 | 0.00 | 54 | 1010.1 |
| 20260504195207 | 71 | 66 | 2.0 | 6.0 | 0.00 | 0.00 | 0.00 | 54 | 1010.3 |
| 20260504194704 | 71 | 94 | 1.0 | 3.0 | 0.00 | 0.00 | 0.00 | 53 | 1010.2 |
| 20260504194200 | 72 | 100 | 0.0 | 3.0 | 0.00 | 0.00 | 0.00 | 53 | 1010.1 |
| 20260504193656 | 72 | 108 | 3.0 | 5.0 | 0.00 | 0.00 | 0.00 | 53 | 1010.2 |
| 20260504193154 | 72 | 48 | 1.0 | 6.0 | 0.00 | 0.00 | 0.00 | 52 | 1010.1 |
| 20260504192652 | 73 | 111 | 0.0 | 1.0 | 0.00 | 0.00 | 0.00 | 51 | 1010.2 |
| 20260504192150 | 72 | 103 | 1.0 | 6.0 | 0.00 | 0.00 | 0.00 | 51 | 1010.5 |
| 20260504191648 | 72 | 120 | 3.0 | 10.0 | 0.00 | 0.00 | 0.00 | 49 | 1010.4 |
| 20260504191144 | 74 | 114 | 1.0 | 6.0 | 0.00 | 0.00 | 0.00 | 44 | 1010.5 |
| 20260504190640 | 73 | 123 | 1.0 | 7.0 | 0.00 | 0.00 | 0.00 | 35 | 1010.5 |
| 20260504190137 | 73 | 124 | 3.0 | 10.0 | 0.00 | 0.00 | 0.00 | 36 | 1010.8 |
| 20260504185633 | 73 | 110 | 3.0 | 6.0 | 0.00 | 0.00 | 0.00 | 34 | 1010.8 |
| 20260504185130 | 74 | 99 | 3.0 | 6.0 | 0.00 | 0.00 | 0.00 | 34 | 1010.8 |
| 20260504184626 | 72 | 104 | 6.0 | 9.0 | 0.00 | 0.00 | 0.00 | 35 | 1010.8 |
| 20260504184121 | 72 | 117 | 6.0 | 9.0 | 0.00 | 0.00 | 0.00 | 36 | 1011.0 |
| 20260504183619 | 71 | 109 | 5.0 | 8.0 | 0.00 | 0.00 | 0.00 | 36 | 1010.9 |
| 20260504183116 | 72 | 127 | 10.0 | 15.0 | 0.00 | 0.00 | 0.00 | 35 | 1011.1 |
| 20260504182614 | 73 | 66 | 4.0 | 6.0 | 0.00 | 0.00 | 0.00 | 35 | 1011.0 |
| 20260504182111 | 72 | 118 | 3.0 | 9.0 | 0.00 | 0.00 | 0.00 | 36 | 1011.3 |
| 20260504181608 | 71 | 161 | 6.0 | 8.0 | 0.00 | 0.00 | 0.00 | 36 | 1011.1 |
| 20260504181106 | 71 | 114 | 7.0 | 9.0 | 0.00 | 0.00 | 0.00 | 37 | 1011.4 |
| 20260504180604 | 71 | 134 | 10.0 | 10.0 | 0.00 | 0.00 | 0.00 | 36 | 1011.4 |
| 20260504180103 | 71 | 121 | 4.0 | 13.0 | 0.00 | 0.00 | 0.00 | 36 | 1011.5 |
| 20260504175600 | 72 | 80 | 1.0 | 9.0 | 0.00 | 0.00 | 0.00 | 37 | 1011.6 |
| 20260504175056 | 72 | 104 | 2.0 | 6.0 | 0.00 | 0.00 | 0.00 | 37 | 1011.4 |
| 20260504174555 | 71 | 120 | 4.0 | 8.0 | 0.00 | 0.00 | 0.00 | 36 | 1011.6 |
| 20260504174051 | 71 | 128 | 5.0 | 9.0 | 0.00 | 0.00 | 0.00 | 37 | 1011.6 |
| 20260504173548 | 71 | 90 | 5.0 | 9.0 | 0.00 | 0.00 | 0.00 | 36 | 1011.7 |
| 20260504173046 | 70 | 141 | 7.0 | 9.0 | 0.00 | 0.00 | 0.00 | 36 | 1011.9 |
| 20260504172541 | 71 | 49 | 7.0 | 13.0 | 0.00 | 0.00 | 0.00 | 36 | 1011.9 |
| 20260504172038 | 71 | 109 | 1.0 | 9.0 | 0.00 | 0.00 | 0.00 | 38 | 1011.9 |
| 20260504171535 | 70 | 108 | 5.0 | 10.0 | 0.00 | 0.00 | 0.00 | 39 | 1011.9 |
| 20260504171032 | 70 | 94 | 2.0 | 8.0 | 0.00 | 0.00 | 0.00 | 37 | 1012.2 |
| 20260504170528 | 70 | 79 | 3.0 | 8.0 | 0.00 | 0.00 | 0.00 | 36 | 1012.0 |
| 20260504150912 | 66 | 115 | 3.0 | 6.0 | 0.00 | 0.00 | 0.00 | 43 | 1013.4 |
| 20260504150409 | 66 | 120 | 3.0 | 14.0 | 0.00 | 0.00 | 0.00 | 43 | 1013.3 |
| 20260504140835 | 63 | 110 | 2.0 | 6.0 | 0.00 | 0.00 | 0.00 | 45 | 1013.8 |
| 20260504140331 | 63 | 102 | 1.0 | 9.0 | 0.00 | 0.00 | 0.00 | 45 | 1013.8 |
| 20260504130800 | 59 | 116 | 2.0 | 5.0 | 0.00 | 0.00 | 0.00 | 56 | 1014.3 |
| 20260504130256 | 59 | 112 | 5.0 | 6.0 | 0.00 | 0.00 | 0.00 | 57 | 1014.4 |
| 20260504120219 | 54 | 139 | 5.0 | 11.0 | 0.00 | 0.00 | 0.00 | 68 | 1014.8 |
| 20260504110647 | 51 | 110 | 5.0 | 9.0 | 0.00 | 0.00 | 0.00 | 72 | 1015.0 |
| 20260504110143 | 51 | 148 | 7.0 | 9.0 | 0.00 | 0.00 | 0.00 | 72 | 1015.2 |
| 20260504100609 | 49 | 137 | 6.0 | 8.0 | 0.00 | 0.00 | 0.00 | 70 | 1014.9 |
| 20260504100107 | 49 | 159 | 6.0 | 9.0 | 0.00 | 0.00 | 0.00 | 69 | 1015.0 |
| 20260504082003 | 47 | 117 | 3.0 | 6.0 | 0.00 | 0.00 | 0.00 | 64 | 1014.7 |
| 20260504081500 | 47 | 127 | 3.0 | 6.0 | 0.00 | 0.00 | 0.00 | 63 | 1014.6 |
| 20260504080955 | 47 | 110 | 1.0 | 8.0 | 0.00 | 0.00 | 0.00 | 63 | 1014.7 |
| 20260504080452 | 47 | 141 | 4.0 | 5.0 | 0.00 | 0.00 | 0.00 | 63 | 1014.7 |
| 20260504050305 | 50 | 168 | 4.0 | 7.0 | 0.00 | 0.00 | 0.00 | 55 | 1014.0 |
| 20260504045803 | 50 | 137 | 3.0 | 7.0 | 0.00 | 0.00 | 0.00 | 55 | 1014.0 |
| 20260504045304 | 50 | 124 | 4.0 | 8.0 | 0.00 | 0.00 | 0.00 | 55 | 1014.0 |
| 20260504044800 | 49 | 130 | 3.0 | 5.0 | 0.00 | 0.00 | 0.00 | 56 | 1014.0 |
| 20260504044258 | 49 | 120 | 1.0 | 7.0 | 0.00 | 0.00 | 0.00 | 55 | 1013.7 |
| 20260504043755 | 50 | 115 | 3.0 | 5.0 | 0.00 | 0.00 | 0.00 | 55 | 1013.7 |
| 20260504043251 | 49 | 104 | 3.0 | 5.0 | 0.00 | 0.00 | 0.00 | 56 | 1013.7 |
| 20260504042749 | 50 | 114 | 1.0 | 5.0 | 0.00 | 0.00 | 0.00 | 55 | 1013.8 |
| 20260504042245 | 50 | 121 | 3.0 | 3.0 | 0.00 | 0.00 | 0.00 | 55 | 1013.7 |
| 20260504041742 | 49 | 109 | 4.0 | 5.0 | 0.00 | 0.00 | 0.00 | 55 | 1013.9 |
| 20260504041238 | 49 | 103 | 2.0 | 6.0 | 0.00 | 0.00 | 0.00 | 55 | 1013.7 |
| 20260504040734 | 50 | 105 | 2.0 | 5.0 | 0.00 | 0.00 | 0.00 | 55 | 1013.6 |
| 20260504040232 | 50 | 113 | 2.0 | 6.0 | 0.00 | 0.00 | 0.00 | 55 | 1013.5 |
| 20260504035728 | 49 | 120 | 3.0 | 5.0 | 0.00 | 0.00 | 0.00 | 55 | 1013.5 |
| 20260504035225 | 50 | 127 | 4.0 | 7.0 | 0.00 | 0.00 | 0.00 | 54 | 1013.4 |
| 20260504034723 | 50 | 102 | 2.0 | 5.0 | 0.00 | 0.00 | 0.00 | 55 | 1013.4 |
| 20260504034220 | 50 | 128 | 3.0 | 6.0 | 0.00 | 0.00 | 0.00 | 54 | 1013.3 |
| 20260504033717 | 50 | 117 | 2.0 | 3.0 | 0.00 | 0.00 | 0.00 | 54 | 1013.3 |
| 20260504033214 | 50 | 114 | 3.0 | 5.0 | 0.00 | 0.00 | 0.00 | 54 | 1013.4 |
| 20260504032711 | 50 | 111 | 3.0 | 3.0 | 0.00 | 0.00 | 0.00 | 54 | 1013.1 |
| 20260504032209 | 50 | 117 | 2.0 | 5.0 | 0.00 | 0.00 | 0.00 | 54 | 1013.4 |
| 20260504031705 | 50 | 126 | 3.0 | 5.0 | 0.00 | 0.00 | 0.00 | 53 | 1013.4 |
| 20260504031202 | 50 | 116 | 3.0 | 3.0 | 0.00 | 0.00 | 0.00 | 53 | 1013.3 |
| 20260504030658 | 50 | 129 | 3.0 | 6.0 | 0.00 | 0.00 | 0.00 | 54 | 1013.3 |
| 20260504030155 | 50 | 131 | 3.0 | 3.0 | 0.00 | 0.00 | 0.00 | 54 | 1013.2 |
| 20260504025652 | 50 | 122 | 3.0 | 5.0 | 0.00 | 0.00 | 0.00 | 53 | 1013.2 |
| 20260504025148 | 50 | 108 | 2.0 | 3.0 | 0.00 | 0.00 | 0.00 | 53 | 1013.1 |
| 20260504024646 | 51 | 115 | 2.0 | 5.0 | 0.00 | 0.00 | 0.00 | 52 | 1013.1 |
| 20260504024142 | 51 | 116 | 2.0 | 3.0 | 0.00 | 0.00 | 0.00 | 52 | 1013.4 |
| 20260504023639 | 50 | 137 | 2.0 | 3.0 | 0.00 | 0.00 | 0.00 | 53 | 1013.4 |
| 20260504023135 | 51 | 117 | 2.0 | 2.0 | 0.00 | 0.00 | 0.00 | 52 | 1013.3 |
| 20260504022632 | 51 | 115 | 1.0 | 3.0 | 0.00 | 0.00 | 0.00 | 51 | 1013.0 |
| 20260504022127 | 51 | 113 | 1.0 | 2.0 | 0.00 | 0.00 | 0.00 | 51 | 1013.3 |
| 20260504021626 | 51 | 115 | 1.0 | 3.0 | 0.00 | 0.00 | 0.00 | 51 | 1013.1 |
| 20260504021122 | 51 | 113 | 2.0 | 3.0 | 0.00 | 0.00 | 0.00 | 51 | 1013.2 |
| 20260504020619 | 51 | 113 | 2.0 | 2.0 | 0.00 | 0.00 | 0.00 | 50 | 1013.1 |
| 20260504020115 | 51 | 115 | 1.0 | 3.0 | 0.00 | 0.00 | 0.00 | 50 | 1013.3 |
| 20260504015612 | 51 | 110 | 1.0 | 2.0 | 0.00 | 0.00 | 0.00 | 51 | 1013.4 |
| 20260504015108 | 51 | 121 | 2.0 | 3.0 | 0.00 | 0.00 | 0.00 | 51 | 1013.1 |
| 20260504014604 | 51 | 115 | 2.0 | 2.0 | 0.00 | 0.00 | 0.00 | 51 | 1013.2 |
| 20260504014101 | 51 | 111 | 1.0 | 2.0 | 0.00 | 0.00 | 0.00 | 50 | 1013.1 |
| 20260504013559 | 51 | 119 | 1.0 | 2.0 | 0.00 | 0.00 | 0.00 | 50 | 1013.2 |
| 20260504013055 | 52 | 110 | 2.0 | 3.0 | 0.00 | 0.00 | 0.00 | 50 | 1013.1 |
| 20260504012553 | 52 | 113 | 1.0 | 2.0 | 0.00 | 0.00 | 0.00 | 49 | 1012.9 |
| 20260504012051 | 52 | 114 | 1.0 | 2.0 | 0.00 | 0.00 | 0.00 | 49 | 1012.9 |
| 20260504011547 | 52 | 114 | 0.0 | 1.0 | 0.00 | 0.00 | 0.00 | 50 | 1012.7 |
| 20260504011043 | 52 | 110 | 0.0 | 0.0 | 0.00 | 0.00 | 0.00 | 48 | 1012.9 |
| 20260504010539 | 52 | 113 | 0.0 | 0.0 | 0.00 | 0.00 | 0.00 | 48 | 1012.5 |
| 20260504010036 | 52 | 109 | 2.0 | 2.0 | 0.00 | 0.00 | 0.00 | 47 | 1012.6 |
| 20260504005532 | 53 | 114 | 1.0 | 3.0 | 0.00 | 0.00 | 0.00 | 47 | 1012.5 |
| 20260504005030 | 53 | 114 | 1.0 | 2.0 | 0.00 | 0.00 | 0.00 | 47 | 1012.5 |
| 20260504004528 | 53 | 110 | 1.0 | 2.0 | 0.00 | 0.00 | 0.00 | 47 | 1012.5 |
| 20260504004024 | 53 | 116 | 1.0 | 2.0 | 0.00 | 0.00 | 0.00 | 46 | 1012.2 |
| 20260504003520 | 53 | 109 | 0.0 | 1.0 | 0.00 | 0.00 | 0.00 | 47 | 1012.2 |
| 20260504003018 | 53 | 114 | 1.0 | 1.0 | 0.00 | 0.00 | 0.00 | 45 | 1012.3 |
| 20260504002514 | 53 | 109 | 0.0 | 0.0 | 0.00 | 0.00 | 0.00 | 47 | 1012.1 |
| 20260504002012 | 53 | 109 | 0.0 | 1.0 | 0.00 | 0.00 | 0.00 | 47 | 1011.9 |
| 20260504001509 | 54 | 109 | 0.0 | 0.0 | 0.00 | 0.00 | 0.00 | 46 | 1011.9 |
| 20260504001005 | 54 | 110 | 0.0 | 0.0 | 0.00 | 0.00 | 0.00 | 45 | 1011.8 |
| 20260504000503 | 55 | 111 | 0.0 | 0.0 | 0.00 | 0.00 | 0.00 | 45 | 1011.8 |
| 20260504000000 | 55 | 110 | 0.0 | 1.0 | 0.00 | 0.00 | 0.00 | 42 | 1011.9 |
| 20260503235458 | 56 | 108 | 0.0 | 0.0 | 0.00 | 0.00 | 0.00 | 43 | 1011.7 |
| 20260503234955 | 57 | 110 | 0.0 | 1.0 | 0.00 | 0.00 | 0.00 | 40 | 1011.6 |
| 20260503234452 | 57 | 112 | 1.0 | 2.0 | 0.00 | 0.00 | 0.00 | 37 | 1011.4 |
| 20260503233950 | 57 | 112 | 1.0 | 2.0 | 0.00 | 0.00 | 0.00 | 37 | 1011.5 |
| 20260503233446 | 57 | 113 | 1.0 | 3.0 | 0.00 | 0.00 | 0.00 | 37 | 1011.5 |
| 20260503232943 | 58 | 103 | 2.0 | 5.0 | 0.00 | 0.00 | 0.00 | 37 | 1011.4 |
| 20260503232440 | 58 | 106 | 1.0 | 3.0 | 0.00 | 0.00 | 0.00 | 37 | 1011.6 |
| 20260503231938 | 58 | 123 | 2.0 | 7.0 | 0.00 | 0.00 | 0.00 | 36 | 1011.6 |
| 20260503231435 | 58 | 99 | 1.0 | 6.0 | 0.00 | 0.00 | 0.00 | 36 | 1011.5 |
| 20260503230931 | 58 | 102 | 3.0 | 5.0 | 0.00 | 0.00 | 0.00 | 36 | 1011.5 |
| 20260503230428 | 58 | 118 | 2.0 | 3.0 | 0.00 | 0.00 | 0.00 | 37 | 1011.3 |
| 20260503225926 | 58 | 120 | 4.0 | 6.0 | 0.00 | 0.00 | 0.00 | 36 | 1011.4 |
| 20260503225422 | 58 | 134 | 3.0 | 7.0 | 0.00 | 0.00 | 0.00 | 35 | 1011.5 |
| 20260503224918 | 58 | 94 | 7.0 | 9.0 | 0.00 | 0.00 | 0.00 | 34 | 1011.4 |
| 20260503224415 | 59 | 115 | 1.0 | 5.0 | 0.00 | 0.00 | 0.00 | 35 | 1011.2 |
| 20260503223913 | 59 | 107 | 5.0 | 8.0 | 0.00 | 0.00 | 0.00 | 34 | 1011.1 |
| 20260503223411 | 59 | 114 | 3.0 | 13.0 | 0.00 | 0.00 | 0.00 | 34 | 1011.1 |
| 20260503222911 | 59 | 134 | 2.0 | 6.0 | 0.00 | 0.00 | 0.00 | 35 | 1011.2 |
| 20260503222409 | 59 | 104 | 3.0 | 9.0 | 0.00 | 0.00 | 0.00 | 35 | 1011.1 |
| 20260503221907 | 59 | 118 | 6.0 | 11.0 | 0.00 | 0.00 | 0.00 | 33 | 1011.2 |
| 20260503221406 | 59 | 119 | 5.0 | 8.0 | 0.00 | 0.00 | 0.00 | 34 | 1011.2 |
| 20260503220901 | 59 | 125 | 3.0 | 10.0 | 0.00 | 0.00 | 0.00 | 34 | 1011.2 |
| 20260503220358 | 59 | 211 | 7.0 | 11.0 | 0.00 | 0.00 | 0.00 | 34 | 1011.0 |
| 20260503215855 | 59 | 114 | 2.0 | 10.0 | 0.00 | 0.00 | 0.00 | 34 | 1011.2 |
| 20260503215352 | 60 | 167 | 6.0 | 17.0 | 0.00 | 0.00 | 0.00 | 34 | 1011.2 |
| 20260503214849 | 60 | 111 | 3.0 | 7.0 | 0.00 | 0.00 | 0.00 | 33 | 1011.1 |
| 20260503214347 | 60 | 131 | 11.0 | 18.0 | 0.00 | 0.00 | 0.00 | 33 | 1011.2 |